createdAt,value
2022-12-08T00:00:22.725Z,22.000000
2022-12-08T00:05:26.396Z,18.000000
2022-12-08T00:10:48.477Z,19.066667
2022-12-08T00:15:30.083Z,34.000000
2022-12-08T00:20:32.118Z,33.066667
2022-12-08T00:25:34.367Z,20.000000
2022-12-08T00:30:16.422Z,19.800000
2022-12-08T00:35:18.923Z,17.000000
2022-12-08T00:40:22.372Z,17.133333
2022-12-08T00:45:23.988Z,19.000000
2022-12-08T00:50:26.586Z,19.133333
2022-12-08T00:55:29.742Z,21.000000
2022-12-08T01:00:32.842Z,20.733333
2022-12-08T01:05:34.906Z,17.000000
2022-12-08T01:10:17.460Z,17.200000
2022-12-08T01:15:21.801Z,20.000000
2022-12-08T01:20:23.645Z,20.000000
2022-12-08T01:25:27.047Z,22.000000
2022-12-08T01:30:28.805Z,21.933333
2022-12-08T01:35:31.752Z,21.000000
2022-12-08T01:40:34.659Z,21.066667
2022-12-08T01:45:16.928Z,22.000000
2022-12-08T01:50:19.638Z,21.666667
2022-12-08T01:55:22.278Z,17.000000
2022-12-08T02:00:25.116Z,17.066667
2022-12-08T02:05:27.599Z,18.000000
2022-12-08T02:10:30.195Z,18.133333
2022-12-08T02:15:32.946Z,20.000000
2022-12-08T02:20:36.150Z,20.000000
2022-12-08T02:25:17.286Z,20.000000
2022-12-08T02:30:20.066Z,19.866667
2022-12-08T02:35:22.904Z,18.000000
2022-12-08T02:40:25.214Z,18.133333
2022-12-08T02:45:27.896Z,20.000000
2022-12-08T02:50:30.428Z,20.200000
2022-12-08T02:55:33.046Z,23.000000
2022-12-08T03:00:35.971Z,22.866667
2022-12-08T03:05:18.365Z,21.000000
2022-12-08T03:10:21.009Z,20.933333
2022-12-08T03:15:23.066Z,20.000000
2022-12-08T03:20:26.664Z,20.133333
2022-12-08T03:25:27.669Z,22.000000
2022-12-08T03:30:30.122Z,21.733333
2022-12-08T03:35:32.916Z,18.000000
2022-12-08T03:40:35.382Z,18.333333
2022-12-08T03:45:17.646Z,23.000000
2022-12-08T03:50:20.667Z,22.933333
2022-12-08T03:55:22.984Z,22.000000
2022-12-08T04:00:26.089Z,22.000000
2022-12-08T04:05:28.868Z,22.000000
2022-12-08T04:10:31.297Z,22.133333
2022-12-08T04:15:34.198Z,24.000000
2022-12-08T04:20:16.604Z,24.000000
2022-12-08T04:25:19.090Z,24.000000
2022-12-08T04:30:21.831Z,24.133333
2022-12-08T04:35:24.759Z,26.000000
2022-12-08T04:40:28.035Z,26.133333
2022-12-08T04:45:31.768Z,28.000000
2022-12-08T04:50:34.463Z,28.133333
2022-12-08T04:55:17.968Z,30.000000
2022-12-08T05:00:21.059Z,30.066667
2022-12-08T05:05:24.515Z,31.000000
2022-12-08T05:10:27.745Z,30.666667
2022-12-08T05:15:30.251Z,26.000000
2022-12-08T05:20:33.445Z,26.200000
2022-12-08T05:25:16.916Z,29.000000
2022-12-08T05:30:20.319Z,30.066667
2022-12-08T05:35:23.759Z,45.000000
2022-12-08T05:40:26.762Z,45.000000
2022-12-08T05:45:30.392Z,45.000000
2022-12-08T05:50:32.892Z,48.133333
2022-12-08T05:55:35.912Z,92.000000
2022-12-08T06:00:18.365Z,88.400000
2022-12-08T06:05:21.498Z,38.000000
2022-12-08T06:10:24.409Z,38.000000
2022-12-08T06:15:27.399Z,73.000000
2022-12-08T06:20:30.188Z,71.133333
2022-12-08T06:25:32.853Z,45.000000
2022-12-08T06:30:35.905Z,44.200000
2022-12-08T06:35:18.054Z,33.000000
2022-12-08T06:40:21.292Z,33.466667
2022-12-08T06:45:23.816Z,40.000000
2022-12-08T06:50:27.095Z,40.200000
2022-12-08T06:56:04.874Z,43.000000
2022-12-08T07:00:31.987Z,42.600000
2022-12-08T07:05:34.777Z,37.000000
2022-12-08T07:10:17.040Z,37.600000
2022-12-08T07:15:20.055Z,46.000000
2022-12-08T07:20:22.921Z,46.000000
2022-12-08T07:25:25.686Z,39.000000
2022-12-08T07:30:27.960Z,39.600000
2022-12-08T07:35:30.972Z,48.000000
2022-12-08T07:40:33.572Z,48.400000
2022-12-08T07:45:16.056Z,54.000000
2022-12-08T07:50:20.118Z,53.933333
2022-12-08T07:55:22.602Z,53.000000
2022-12-08T08:00:25.020Z,53.000000
2022-12-08T08:05:27.847Z,48.000000
2022-12-08T08:10:30.552Z,48.133333
2022-12-08T08:15:33.758Z,50.000000
2022-12-08T08:20:17.188Z,50.400000
2022-12-08T08:25:19.007Z,56.000000
2022-12-08T08:30:21.452Z,55.933333
2022-12-08T08:35:23.599Z,55.000000
2022-12-08T08:40:26.289Z,55.333333
2022-12-08T08:45:29.550Z,60.000000
2022-12-08T08:50:37.349Z,59.666667
2022-12-08T08:55:34.862Z,55.000000
2022-12-08T09:00:16.540Z,54.800000
2022-12-08T09:05:19.361Z,52.000000
2022-12-08T09:10:22.541Z,52.000000
2022-12-08T09:15:25.406Z,52.000000
2022-12-08T09:20:28.105Z,52.200000
2022-12-08T09:25:30.921Z,55.000000
2022-12-08T09:30:33.480Z,54.666667
2022-12-08T09:35:35.961Z,50.000000
2022-12-08T09:40:19.067Z,50.066667
2022-12-08T09:45:21.793Z,51.000000
2022-12-08T09:50:24.432Z,51.000000
2022-12-08T09:55:27.235Z,53.000000
2022-12-08T10:00:30.194Z,53.466667
2022-12-08T10:05:32.969Z,60.000000
2022-12-08T10:10:35.508Z,59.400000
2022-12-08T10:15:17.898Z,51.000000
2022-12-08T10:20:20.667Z,51.533333
2022-12-08T10:25:24.279Z,59.000000
2022-12-08T10:30:25.659Z,59.066667
2022-12-08T10:35:28.198Z,60.000000
2022-12-08T10:40:30.624Z,59.666667
2022-12-08T10:45:33.308Z,55.000000
2022-12-08T10:50:16.579Z,55.000000
2022-12-08T10:55:18.119Z,55.000000
2022-12-08T11:00:20.622Z,55.200000
2022-12-08T11:05:23.877Z,58.000000
2022-12-08T11:10:26.337Z,57.866667
2022-12-08T11:15:28.711Z,56.000000
2022-12-08T11:20:32.148Z,56.800000
2022-12-08T11:25:34.602Z,68.000000
2022-12-08T11:30:17.556Z,68.000000
2022-12-08T11:35:19.698Z,68.000000
2022-12-08T11:40:22.133Z,68.000000
2022-12-08T11:45:24.774Z,73.000000
2022-12-08T11:50:27.320Z,73.400000
2022-12-08T11:55:33.782Z,79.000000
2022-12-08T12:00:32.882Z,78.333333
2022-12-08T12:06:30.840Z,69.000000
2022-12-08T12:10:17.643Z,68.800000
2022-12-08T12:15:20.311Z,66.000000
2022-12-08T12:20:22.826Z,66.000000
2022-12-08T12:25:25.677Z,71.000000
2022-12-08T12:30:29.524Z,72.133333
2022-12-08T12:35:30.784Z,88.000000
2022-12-08T12:40:33.284Z,87.266667
2022-12-08T12:45:36.215Z,77.000000
2022-12-08T12:50:18.730Z,77.466667
2022-12-08T12:55:21.583Z,84.000000
2022-12-08T13:00:24.234Z,84.000000
2022-12-08T13:05:27.029Z,77.000000
2022-12-08T13:10:30.484Z,77.066667
2022-12-08T13:15:32.887Z,78.000000
2022-12-08T13:20:16.029Z,78.000000
2022-12-08T13:25:18.848Z,78.000000
2022-12-08T13:30:23.197Z,78.000000
2022-12-08T13:35:25.894Z,85.000000
2022-12-08T13:40:28.859Z,84.733333
2022-12-08T13:56:37.517Z,102.000000
2022-12-08T13:57:01.525Z,102.000000
2022-12-08T14:00:20.002Z,102.266667
2022-12-08T14:05:40.527Z,106.000000
2022-12-08T14:10:26.119Z,105.666667
2022-12-08T14:15:35.565Z,101.000000
2022-12-08T14:20:42.351Z,102.400000
2022-12-08T14:25:35.808Z,122.000000
2022-12-08T14:30:18.331Z,120.200000
2022-12-08T14:35:21.054Z,95.000000
2022-12-08T14:40:23.947Z,95.000000
2022-12-08T14:45:26.186Z,94.000000
2022-12-08T14:50:28.809Z,94.000000
2022-12-08T14:55:31.310Z,94.000000
2022-12-08T15:00:34.157Z,93.666667
2022-12-08T15:05:16.420Z,89.000000
2022-12-08T15:10:19.334Z,89.466667
2022-12-08T15:15:22.048Z,96.000000
2022-12-08T15:20:30.015Z,96.000000
2022-12-08T15:25:27.825Z,95.000000
2022-12-08T15:30:30.518Z,94.333333
2022-12-08T15:35:37.357Z,85.000000
2022-12-08T15:40:35.344Z,85.733333
2022-12-08T15:45:18.051Z,96.000000
2022-12-08T15:50:21.280Z,95.133333
2022-12-08T15:55:24.136Z,83.000000
2022-12-08T16:00:51.371Z,83.066667
2022-12-08T16:06:06.983Z,84.000000
2022-12-08T16:07:21.475Z,84.000000
2022-12-08T16:10:59.035Z,83.733333
2022-12-08T16:16:11.143Z,80.000000
2022-12-08T16:20:17.764Z,79.866667
2022-12-08T16:25:21.742Z,78.000000
2022-12-08T16:30:22.569Z,78.000000
2022-12-08T16:35:25.241Z,73.000000
2022-12-08T16:40:27.676Z,71.933333
2022-12-08T16:45:30.672Z,57.000000
2022-12-08T16:50:33.159Z,56.600000
2022-12-08T16:55:16.311Z,51.000000
2022-12-08T17:00:19.070Z,50.133333
2022-12-08T17:05:21.812Z,38.000000
2022-12-08T17:10:24.318Z,38.000000
2022-12-08T17:15:27.437Z,36.000000
2022-12-08T17:20:29.314Z,35.800000
2022-12-08T17:25:32.533Z,33.000000
2022-12-08T17:30:34.859Z,32.466667
2022-12-08T17:35:17.867Z,25.000000
2022-12-08T17:40:23.609Z,24.800000
2022-12-08T17:45:23.622Z,22.000000
2022-12-08T17:50:26.187Z,22.066667
2022-12-08T17:55:28.826Z,23.000000
2022-12-08T18:00:31.790Z,23.133333
2022-12-08T18:05:34.357Z,25.000000
2022-12-08T18:10:17.018Z,25.133333
2022-12-08T18:15:19.638Z,27.000000
2022-12-08T18:20:22.744Z,27.000000
2022-12-08T18:25:25.179Z,28.000000
2022-12-08T18:30:28.530Z,27.933333
2022-12-08T18:35:30.478Z,27.000000
2022-12-08T18:40:33.015Z,26.866667
2022-12-08T18:45:35.485Z,25.000000
2022-12-08T18:50:17.487Z,24.866667
2022-12-08T18:55:20.294Z,23.000000
2022-12-08T19:00:23.120Z,23.000000
2022-12-08T19:05:25.729Z,25.000000
2022-12-08T19:10:28.134Z,24.933333
2022-12-08T19:15:30.844Z,24.000000
2022-12-08T19:20:33.181Z,24.133333
2022-12-08T19:25:16.553Z,26.000000
2022-12-08T19:30:18.448Z,25.733333
2022-12-08T19:35:21.131Z,22.000000
2022-12-08T19:40:24.114Z,22.000000
2022-12-08T19:45:27.000Z,21.000000
2022-12-08T19:50:29.999Z,20.933333
2022-12-08T19:55:32.666Z,20.000000
2022-12-08T20:00:35.667Z,20.000000
2022-12-08T20:05:18.177Z,20.000000
2022-12-08T20:10:21.105Z,20.000000
2022-12-08T20:15:23.785Z,20.000000
2022-12-08T20:20:26.134Z,20.000000
2022-12-08T20:25:28.699Z,20.000000
2022-12-08T20:30:31.302Z,20.000000
2022-12-08T20:35:34.336Z,20.000000
2022-12-08T20:40:16.394Z,19.800000
2022-12-08T20:45:21.184Z,17.000000
2022-12-08T20:50:21.584Z,17.200000
2022-12-08T20:55:24.008Z,20.000000
2022-12-08T21:00:26.656Z,19.866667
2022-12-08T21:05:28.803Z,18.000000
2022-12-08T21:10:31.391Z,18.133333
2022-12-08T21:15:35.237Z,20.000000
2022-12-08T21:20:16.652Z,20.000000
2022-12-08T21:25:19.552Z,20.000000
2022-12-08T21:30:21.824Z,20.133333
2022-12-08T21:35:24.600Z,22.000000
2022-12-08T21:40:27.687Z,22.000000
2022-12-08T21:45:30.527Z,22.000000
2022-12-08T21:50:33.603Z,22.066667
2022-12-08T21:55:36.192Z,23.000000
2022-12-08T22:00:18.612Z,22.933333
2022-12-08T22:05:20.667Z,22.000000
2022-12-08T22:10:23.391Z,22.000000
2022-12-08T22:15:26.778Z,24.000000
2022-12-08T22:20:28.533Z,23.933333
2022-12-08T22:25:31.382Z,23.000000
2022-12-08T22:30:38.871Z,23.000000
2022-12-08T22:35:16.430Z,23.000000
2022-12-08T22:40:19.160Z,23.133333
2022-12-08T22:45:22.762Z,25.000000
2022-12-08T22:50:24.244Z,25.000000
2022-12-08T22:55:26.770Z,27.000000
2022-12-08T23:00:29.994Z,26.733333
2022-12-08T23:05:32.272Z,23.000000
2022-12-08T23:10:34.934Z,22.933333
2022-12-08T23:15:17.521Z,22.000000
2022-12-08T23:20:20.357Z,22.133333
2022-12-08T23:25:22.508Z,24.000000
2022-12-08T23:30:24.980Z,24.000000
2022-12-08T23:35:27.400Z,21.000000
2022-12-08T23:40:30.115Z,21.333333
2022-12-08T23:45:33.057Z,26.000000
2022-12-08T23:50:36.351Z,25.866667
2022-12-08T23:55:18.378Z,24.000000
